Česky Dansk Deutsch English Español Suomi Français Magyar Italiano Nederlands norsk Polski Português svenska Türkçe

 

Het Weer

Victoria Falls (Zimbabwe)

15:00, 18 augustus 2016 (GMT)

NWNNE
WE
SWSSE
Home            
Victoria Falls Livingstone Kasane Hwange National Park Binga Sesheke Katima Mulilo Choma Sua-Pan Gokwe Maun Senanga Bulawayo Airport Kariba Letlhakane Kaoma Francistown Lusaka Internationalairport Shakawe Karoi Mongu Gweru Selebi Phikwe

Om een weerknop op uw website of weblog te plaatsen, copieer onderstaande code en plak die in uw pagina. In het eerste vakje staat HTML-code, in het tweede vakje UBB-code.


Add to Google

Details

Wind speed:3 bf, 8 kn, 4.1 m/s, 9.2 miles/h, 14.8 km/h
Wind direction:E, 090°
Visibility:Greater than 10000 m, 10 km, 32800 ft, 6.2 miles
Clouds:CAVOC
Temperature:26°C, 79°F
Gefühlte Temperatur:26°C, 78°F
Dew-point:6°C, 43°F
Atmospheric pressure:1019 hPa, 764.3 mmHg, 30.09 inHg, 1.006 atm
Relative humidity:27.8 %
METAR:FVFA 181500Z 09008KT CAVOK 26/06 Q1019 NOSIG

Snelkoppelingen

Actuele weersinformatie van de hele wereld. Voeg locaties toe met het plus (+) symbool. Deze snelkoppelingen kunnen worden toegevoegd aan Google.

Lid van de Technetium groep

website free tracking
StatCounter NetStat W3C Validator

21-10-2020 12:31:57
astro.technetium.be money.technetium.be phote.technetium.be tafeltennistafel.technetium.be www.ligfiets.net